createdAt,value
2022-12-23T00:00:57.582Z,12.95
2022-12-23T00:03:26.691Z,13.18
2022-12-23T00:05:54.699Z,15.32
2022-12-23T00:08:24.417Z,13.32
2022-12-23T00:10:54.675Z,11.73
2022-12-23T00:13:41.398Z,12.85
2022-12-23T00:16:12.838Z,15.07
2022-12-23T00:18:41.243Z,15.55
2022-12-23T00:21:12.347Z,15.85
2022-12-23T00:23:42.518Z,18.73
2022-12-23T00:26:25.348Z,15.05
2022-12-23T00:28:57.521Z,16.10
2022-12-23T00:33:06.260Z,15.02
2022-12-23T00:36:03.235Z,16.35
2022-12-23T00:38:49.369Z,20.42
2022-12-23T00:41:37.792Z,20.67
2022-12-23T00:44:05.830Z,20.05
2022-12-23T00:46:33.399Z,20.38
2022-12-23T00:49:19.958Z,20.92
2022-12-23T00:51:47.752Z,17.92
2022-12-23T00:54:16.236Z,22.75
2022-12-23T00:56:43.784Z,20.98
2022-12-23T00:59:11.506Z,22.17
2022-12-23T01:01:57.915Z,19.63
2022-12-23T01:04:44.191Z,19.30
2022-12-23T01:07:11.865Z,24.98
2022-12-23T01:09:39.541Z,18.60
2022-12-23T01:12:07.670Z,21.15
2022-12-23T01:14:35.769Z,23.42
2022-12-23T01:17:03.880Z,22.45
2022-12-23T01:19:32.989Z,19.05
2022-12-23T01:22:00.533Z,19.02
2022-12-23T01:24:29.914Z,20.92
2022-12-23T01:26:58.179Z,18.05
2022-12-23T01:29:26.305Z,17.70
2022-12-23T01:31:53.913Z,19.33
2022-12-23T01:34:21.659Z,21.17
2022-12-23T01:36:49.282Z,18.20
2022-12-23T01:39:17.830Z,16.70
2022-12-23T01:42:03.679Z,15.85
2022-12-23T01:45:00.884Z,17.33
2022-12-23T01:47:34.016Z,17.08
2022-12-23T01:50:04.437Z,16.20
2022-12-23T01:52:39.053Z,15.07
2022-12-23T01:55:07.632Z,14.68
2022-12-23T01:57:39.003Z,15.82
2022-12-23T02:00:28.134Z,14.45
2022-12-23T02:03:14.223Z,12.80
2022-12-23T02:05:45.341Z,14.82
2022-12-23T02:08:34.676Z,13.52
2022-12-23T02:11:39.763Z,18.35
2022-12-23T02:14:54.059Z,15.20
2022-12-23T02:17:30.547Z,14.20
2022-12-23T02:20:19.809Z,17.08
2022-12-23T02:23:24.860Z,17.48
2022-12-23T02:25:52.712Z,16.95
2022-12-23T02:29:05.264Z,17.15
2022-12-23T02:31:54.440Z,16.50
2022-12-23T02:34:32.678Z,16.08
2022-12-23T02:37:21.982Z,17.88
2022-12-23T02:40:20.405Z,16.23
2022-12-23T02:42:53.308Z,14.38
2022-12-23T02:45:26.026Z,17.42
2022-12-23T02:48:02.155Z,16.15
2022-12-23T02:50:37.272Z,22.05
2022-12-23T02:53:14.446Z,20.67
2022-12-23T02:55:45.590Z,20.88
2022-12-23T02:58:18.224Z,20.17
2022-12-23T03:00:47.901Z,21.77
2022-12-23T03:05:47.211Z,25.10
2022-12-23T03:08:20.873Z,20.70
2022-12-23T03:11:04.998Z,22.33
2022-12-23T03:13:38.617Z,19.23
2022-12-23T03:16:23.291Z,23.67
2022-12-23T03:18:56.587Z,23.08
2022-12-23T03:21:47.227Z,19.17
2022-12-23T03:24:23.026Z,21.45
2022-12-23T03:27:12.480Z,22.90
2022-12-23T03:29:54.024Z,25.45
2022-12-23T03:32:23.277Z,24.20
2022-12-23T03:34:54.655Z,21.88
2022-12-23T03:37:24.935Z,25.40
2022-12-23T03:39:58.908Z,25.52
2022-12-23T03:42:31.968Z,21.00
2022-12-23T03:47:58.690Z,23.83
2022-12-23T03:50:28.763Z,25.15
2022-12-23T03:53:01.342Z,25.05
2022-12-23T03:55:36.947Z,22.67
2022-12-23T03:58:14.566Z,23.75
2022-12-23T04:00:59.025Z,21.83
2022-12-23T04:03:44.960Z,20.92
2022-12-23T04:06:17.834Z,24.33
2022-12-23T04:08:48.319Z,22.15
2022-12-23T04:11:16.777Z,27.38
2022-12-23T04:13:44.290Z,28.88
2022-12-23T04:16:12.185Z,25.08
2022-12-23T04:18:39.836Z,24.48
2022-12-23T04:21:07.401Z,27.25
2022-12-23T04:23:34.961Z,31.48
2022-12-23T04:26:02.512Z,28.67
2022-12-23T04:28:30.279Z,25.67
2022-12-23T04:30:58.091Z,28.45
2022-12-23T04:33:25.726Z,33.17
2022-12-23T04:35:53.344Z,27.23
2022-12-23T04:38:20.916Z,24.90
2022-12-23T04:40:48.486Z,24.48
2022-12-23T04:43:16.180Z,26.20
2022-12-23T04:45:43.727Z,25.23
2022-12-23T04:48:11.448Z,27.33
2022-12-23T04:50:39.493Z,23.70
2022-12-23T04:53:07.068Z,27.52
2022-12-23T04:55:37.120Z,21.63
2022-12-23T04:58:04.759Z,27.63
2022-12-23T05:00:38.935Z,20.95
2022-12-23T05:03:07.424Z,24.70
2022-12-23T05:05:35.158Z,24.23
2022-12-23T05:08:05.330Z,26.08
2022-12-23T05:10:32.994Z,27.05
2022-12-23T05:13:00.580Z,27.40
2022-12-23T05:15:28.192Z,24.85
2022-12-23T05:18:02.387Z,25.88
2022-12-23T05:20:30.067Z,25.95
2022-12-23T05:22:57.648Z,23.80
2022-12-23T05:25:26.338Z,20.85
2022-12-23T05:27:53.872Z,21.30
2022-12-23T05:30:21.390Z,20.63
2022-12-23T05:32:54.813Z,22.30
2022-12-23T05:35:26.746Z,23.45
2022-12-23T05:37:54.498Z,22.58
2022-12-23T05:40:26.878Z,20.75
2022-12-23T05:42:59.453Z,82.28
2022-12-23T05:45:27.034Z,29.95
2022-12-23T05:47:54.631Z,22.00
2022-12-23T05:50:22.278Z,24.95
2022-12-23T05:52:50.065Z,23.20
2022-12-23T05:55:17.935Z,25.15
2022-12-23T05:57:45.509Z,24.70
2022-12-23T06:00:15.746Z,25.13
2022-12-23T06:02:47.229Z,18.63
2022-12-23T06:05:18.036Z,19.13
2022-12-23T06:07:46.555Z,21.40
2022-12-23T06:10:14.263Z,17.73
2022-12-23T06:12:41.910Z,21.25
2022-12-23T06:15:10.247Z,20.13
2022-12-23T06:17:38.549Z,26.87
2022-12-23T06:20:06.954Z,18.50
2022-12-23T06:22:34.633Z,24.23
2022-12-23T06:25:02.277Z,22.85
2022-12-23T06:27:30.308Z,22.67
2022-12-23T06:29:58.027Z,21.27
2022-12-23T06:32:25.706Z,20.80
2022-12-23T06:34:53.740Z,22.92
2022-12-23T06:37:22.262Z,23.52
2022-12-23T06:39:49.898Z,23.17
2022-12-23T06:42:17.550Z,25.10
2022-12-23T06:44:45.106Z,23.08
2022-12-23T06:47:12.660Z,27.15
2022-12-23T06:49:40.319Z,25.55
2022-12-23T06:52:08.006Z,25.27
2022-12-23T06:54:35.596Z,24.42
2022-12-23T06:57:03.143Z,23.63
2022-12-23T06:59:31.651Z,23.75
2022-12-23T07:01:59.412Z,26.35
2022-12-23T07:04:28.549Z,25.48
2022-12-23T07:06:56.213Z,24.88
2022-12-23T07:09:24.203Z,24.65
2022-12-23T07:11:52.472Z,24.63
2022-12-23T07:14:20.026Z,21.40
2022-12-23T07:16:48.306Z,23.05
2022-12-23T07:19:18.664Z,21.67
2022-12-23T07:21:46.180Z,25.48
2022-12-23T07:24:14.189Z,25.17
2022-12-23T07:26:41.696Z,23.00
2022-12-23T07:29:10.064Z,23.75
2022-12-23T07:31:40.921Z,26.60
2022-12-23T07:34:09.639Z,23.02
2022-12-23T07:36:37.764Z,23.15
2022-12-23T07:39:05.698Z,22.73
2022-12-23T07:41:33.352Z,26.50
2022-12-23T07:44:08.685Z,20.92
2022-12-23T07:46:37.006Z,23.10
2022-12-23T07:49:05.305Z,24.15
2022-12-23T07:51:33.697Z,26.98
2022-12-23T07:54:01.203Z,26.60
2022-12-23T07:56:28.817Z,22.60
2022-12-23T07:58:56.476Z,25.45
2022-12-23T08:01:24.464Z,27.50
2022-12-23T08:03:52.198Z,20.98
2022-12-23T08:06:19.825Z,20.05
2022-12-23T08:08:47.449Z,23.02
2022-12-23T08:11:16.323Z,23.10
2022-12-23T08:13:48.339Z,25.85
2022-12-23T08:16:15.989Z,23.75
2022-12-23T08:18:44.630Z,25.70
2022-12-23T08:21:14.971Z,22.35
2022-12-23T08:23:43.715Z,25.52
2022-12-23T08:26:17.426Z,19.10
2022-12-23T08:28:45.821Z,22.25
2022-12-23T08:31:21.416Z,23.58
2022-12-23T08:33:51.662Z,20.75
2022-12-23T08:36:24.801Z,19.80
2022-12-23T08:38:54.686Z,25.20
2022-12-23T08:43:52.524Z,22.38
2022-12-23T08:46:21.005Z,20.20
2022-12-23T08:48:49.740Z,23.73
2022-12-23T08:51:19.754Z,25.25
2022-12-23T08:53:49.090Z,18.48
2022-12-23T08:56:21.585Z,23.40
2022-12-23T08:58:52.793Z,22.45
2022-12-23T09:01:23.668Z,20.80
2022-12-23T09:03:52.456Z,19.23
2022-12-23T09:08:58.973Z,19.95
2022-12-23T09:11:29.097Z,25.47
2022-12-23T09:13:58.632Z,20.77
2022-12-23T09:16:26.716Z,25.63
2022-12-23T09:18:54.330Z,19.30
2022-12-23T09:21:23.740Z,20.48
2022-12-23T09:23:52.508Z,19.52
2022-12-23T09:26:23.791Z,20.42
2022-12-23T09:28:52.962Z,22.13
2022-12-23T09:36:54.905Z,21.15
2022-12-23T09:39:31.845Z,24.98
2022-12-23T09:53:08.683Z,23.08
2022-12-23T09:56:00.711Z,22.27
2022-12-23T09:58:38.833Z,18.13
2022-12-23T10:01:06.325Z,19.95
2022-12-23T10:05:10.298Z,21.02
2022-12-23T10:07:50.052Z,22.50
2022-12-23T10:10:27.832Z,20.92
2022-12-23T10:12:58.418Z,24.20
2022-12-23T10:15:29.040Z,21.45
2022-12-23T10:18:01.849Z,20.38
2022-12-23T10:20:37.703Z,21.92
2022-12-23T10:23:16.046Z,20.40
2022-12-23T10:25:52.277Z,22.77
2022-12-23T10:28:20.556Z,23.42
2022-12-23T10:31:31.133Z,21.92
2022-12-23T10:34:05.535Z,21.42
2022-12-23T10:36:55.093Z,21.70
2022-12-23T10:39:36.009Z,25.08
2022-12-23T10:42:51.781Z,20.75
2022-12-23T10:45:32.638Z,21.38
2022-12-23T10:48:23.362Z,21.38
2022-12-23T10:51:45.160Z,23.75
2022-12-23T10:54:20.843Z,28.20
2022-12-23T10:56:48.800Z,20.83
2022-12-23T10:59:23.202Z,24.77
2022-12-23T11:01:56.788Z,21.40
2022-12-23T11:04:36.662Z,21.23
2022-12-23T11:07:42.098Z,25.25
2022-12-23T11:09:58.345Z,20.42
2022-12-23T11:12:42.532Z,22.55
2022-12-23T11:15:30.683Z,24.13
2022-12-23T11:18:11.799Z,21.65
2022-12-23T11:20:44.755Z,18.40
2022-12-23T11:23:36.658Z,23.73
2022-12-23T11:26:08.096Z,21.10
2022-12-23T11:28:48.248Z,24.13
2022-12-23T11:31:24.493Z,21.17
2022-12-23T11:33:58.477Z,22.50
2022-12-23T11:36:28.928Z,23.52
2022-12-23T11:39:14.503Z,29.17
2022-12-23T11:41:54.558Z,27.40
2022-12-23T11:44:41.453Z,21.55
2022-12-23T11:47:30.806Z,23.85
2022-12-23T11:50:01.348Z,27.60
2022-12-23T11:52:30.950Z,22.95
2022-12-23T11:55:01.432Z,22.13
2022-12-23T11:57:45.374Z,29.23
2022-12-23T12:00:39.222Z,23.38
2022-12-23T12:03:14.458Z,25.90
2022-12-23T12:05:51.513Z,26.42
2022-12-23T12:08:27.629Z,24.85
2022-12-23T12:11:21.225Z,30.02
2022-12-23T12:13:57.498Z,25.88
2022-12-23T12:16:31.500Z,28.65
2022-12-23T12:19:10.354Z,31.63
2022-12-23T12:21:39.124Z,22.95
2022-12-23T12:24:19.265Z,26.50
2022-12-23T12:26:54.438Z,34.90
2022-12-23T12:29:32.922Z,29.73
2022-12-23T12:32:02.392Z,27.38
2022-12-23T12:34:41.850Z,27.08
2022-12-23T12:37:12.468Z,22.77
2022-12-23T12:39:49.900Z,26.95
2022-12-23T12:42:30.392Z,30.83
2022-12-23T12:45:34.917Z,28.13
2022-12-23T12:48:29.634Z,27.67
2022-12-23T12:51:12.674Z,26.63
2022-12-23T12:53:52.908Z,22.48
2022-12-23T12:56:30.589Z,25.83
2022-12-23T12:58:58.975Z,21.17
2022-12-23T13:01:46.088Z,24.52
2022-12-23T13:04:22.806Z,27.45
2022-12-23T13:07:08.468Z,27.40
2022-12-23T13:09:57.367Z,26.92
2022-12-23T13:12:44.897Z,25.80
2022-12-23T13:15:20.853Z,29.88
2022-12-23T13:18:01.968Z,31.52
2022-12-23T13:20:46.197Z,23.33
2022-12-23T13:23:42.782Z,27.75
2022-12-23T13:26:38.132Z,28.92
2022-12-23T13:29:25.224Z,25.88
2022-12-23T13:31:58.905Z,29.10
2022-12-23T13:34:38.245Z,27.35
2022-12-23T13:37:29.161Z,24.77
2022-12-23T13:40:22.621Z,26.45
2022-12-23T13:42:56.243Z,31.17
2022-12-23T13:45:31.888Z,33.22
2022-12-23T13:48:17.958Z,29.98
2022-12-23T13:51:15.222Z,31.75
2022-12-23T13:53:59.329Z,27.65
2022-12-23T13:56:42.271Z,29.95
2022-12-23T13:59:12.619Z,28.42
2022-12-23T14:01:49.832Z,36.30
2022-12-23T14:04:38.252Z,34.85
2022-12-23T14:07:21.939Z,35.40
2022-12-23T14:09:55.109Z,34.83
2022-12-23T14:12:30.905Z,33.08
2022-12-23T14:15:26.475Z,36.50
2022-12-23T14:18:04.952Z,29.20
2022-12-23T14:23:42.750Z,28.73
2022-12-23T14:26:48.040Z,32.13
2022-12-23T14:29:30.779Z,34.53
2022-12-23T14:31:58.732Z,35.78
2022-12-23T14:34:32.606Z,35.47
2022-12-23T14:37:25.630Z,38.45
2022-12-23T14:39:53.785Z,35.75
2022-12-23T14:42:34.713Z,33.55
2022-12-23T14:48:34.765Z,31.33
2022-12-23T14:53:34.143Z,36.57
2022-12-23T14:56:19.714Z,32.78
2022-12-23T14:59:04.073Z,35.88
2022-12-23T15:01:38.924Z,31.55
2022-12-23T15:04:14.612Z,33.53
2022-12-23T15:06:46.105Z,37.58
2022-12-23T15:09:54.544Z,34.53
2022-12-23T15:12:39.613Z,34.40
2022-12-23T15:15:19.057Z,40.17
2022-12-23T15:17:47.225Z,39.10
2022-12-23T15:20:21.153Z,34.15
2022-12-23T15:22:52.227Z,33.50
2022-12-23T15:25:28.972Z,33.42
2022-12-23T15:28:01.932Z,36.35
2022-12-23T15:30:35.039Z,41.67
2022-12-23T15:33:34.748Z,36.42
2022-12-23T15:35:57.390Z,35.85
2022-12-23T15:38:29.401Z,36.30
2022-12-23T15:41:02.880Z,35.10
2022-12-23T15:43:31.905Z,40.20
2022-12-23T15:46:30.476Z,39.42
2022-12-23T15:48:58.588Z,37.20
2022-12-23T15:54:30.435Z,35.13
2022-12-23T15:57:00.412Z,43.75
2022-12-23T15:59:32.976Z,39.08
2022-12-23T16:03:00.426Z,40.05
2022-12-23T16:05:29.607Z,39.83
2022-12-23T16:08:16.264Z,43.95
2022-12-23T16:11:05.506Z,39.42
2022-12-23T16:13:34.000Z,38.95
2022-12-23T16:16:40.358Z,43.30
2022-12-23T16:19:37.044Z,46.28
2022-12-23T16:22:14.563Z,45.20
2022-12-23T16:24:48.976Z,38.72
2022-12-23T16:27:19.930Z,52.92
2022-12-23T16:29:48.862Z,47.33
2022-12-23T16:32:18.570Z,39.25
2022-12-23T16:34:50.186Z,39.25
2022-12-23T16:37:17.833Z,40.63
2022-12-23T16:39:45.306Z,35.47
2022-12-23T16:42:12.840Z,43.30
2022-12-23T16:44:40.314Z,37.65
2022-12-23T16:47:16.326Z,42.03
2022-12-23T16:49:44.009Z,43.78
2022-12-23T16:52:14.332Z,39.72
2022-12-23T16:54:42.654Z,37.03
2022-12-23T16:57:10.563Z,39.50
2022-12-23T16:59:41.079Z,36.58
2022-12-23T17:02:23.395Z,39.30
2022-12-23T17:04:51.345Z,36.35
2022-12-23T17:07:18.817Z,34.83
2022-12-23T17:09:46.469Z,34.05
2022-12-23T17:12:14.066Z,36.05
2022-12-23T17:14:41.942Z,37.55
2022-12-23T17:17:15.587Z,35.22
2022-12-23T17:19:43.316Z,39.88
2022-12-23T17:22:13.217Z,37.50
2022-12-23T17:24:40.782Z,35.38
2022-12-23T17:27:13.685Z,42.22
2022-12-23T17:29:41.472Z,36.67
2022-12-23T17:32:15.182Z,37.72
2022-12-23T17:34:43.022Z,35.67
2022-12-23T17:37:19.503Z,40.83
2022-12-23T17:39:47.934Z,35.17
2022-12-23T17:42:25.793Z,39.25
2022-12-23T17:44:54.207Z,42.58
2022-12-23T17:47:22.739Z,38.70
2022-12-23T17:49:51.439Z,36.53
2022-12-23T17:52:22.172Z,41.03
2022-12-23T17:54:51.129Z,42.38
2022-12-23T17:57:22.143Z,39.55
2022-12-23T17:59:51.050Z,37.65
2022-12-23T18:02:25.366Z,39.28
2022-12-23T18:04:53.342Z,43.65
2022-12-23T18:07:21.024Z,45.67
2022-12-23T18:09:50.801Z,42.83
2022-12-23T18:12:38.226Z,42.15
2022-12-23T18:15:14.449Z,41.25
2022-12-23T18:17:42.229Z,41.10
2022-12-23T18:20:15.576Z,43.53
2022-12-23T18:22:43.373Z,42.80
2022-12-23T18:25:24.994Z,43.38
2022-12-23T18:27:54.774Z,42.30
2022-12-23T18:30:22.493Z,44.15
2022-12-23T18:32:50.238Z,43.88
2022-12-23T18:35:28.568Z,46.08
2022-12-23T18:37:56.936Z,42.22
2022-12-23T18:40:30.968Z,44.67
2022-12-23T18:43:00.674Z,45.20
2022-12-23T18:45:37.785Z,51.10
2022-12-23T18:48:08.202Z,46.15
2022-12-23T18:50:38.725Z,51.55
2022-12-23T18:53:08.258Z,53.03
2022-12-23T18:55:36.397Z,43.72
2022-12-23T18:58:04.327Z,48.47
2022-12-23T19:00:33.677Z,47.67
2022-12-23T19:03:01.425Z,50.60
2022-12-23T19:05:33.103Z,48.60
2022-12-23T19:08:00.827Z,43.83
2022-12-23T19:10:32.832Z,45.83
2022-12-23T19:13:00.991Z,48.00
2022-12-23T19:15:28.745Z,46.17
2022-12-23T19:17:56.363Z,59.25
2022-12-23T19:20:24.026Z,50.20
2022-12-23T19:22:51.746Z,51.22
2022-12-23T19:25:19.880Z,46.90
2022-12-23T19:27:48.194Z,44.08
2022-12-23T19:30:18.208Z,42.85
2022-12-23T19:32:46.032Z,46.42
2022-12-23T19:35:14.807Z,48.50
2022-12-23T19:37:43.130Z,43.03
2022-12-23T19:40:11.365Z,42.10
2022-12-23T19:42:39.756Z,39.60
2022-12-23T19:45:09.955Z,40.65
2022-12-23T19:47:38.043Z,40.58
2022-12-23T19:50:06.890Z,45.95
2022-12-23T19:52:34.790Z,40.85
2022-12-23T19:55:02.310Z,41.83
2022-12-23T19:57:30.208Z,37.60
2022-12-23T19:59:57.737Z,39.28
2022-12-23T20:02:25.327Z,39.63
2022-12-23T20:04:52.817Z,34.95
2022-12-23T20:07:20.304Z,34.33
2022-12-23T20:09:48.133Z,37.00
2022-12-23T20:12:16.029Z,33.83
2022-12-23T20:14:43.601Z,40.33
2022-12-23T20:17:11.156Z,37.33
2022-12-23T20:19:45.645Z,36.20
2022-12-23T20:22:13.923Z,33.30
2022-12-23T20:24:41.598Z,35.13
2022-12-23T20:27:11.734Z,34.53
2022-12-23T20:29:40.261Z,33.33
2022-12-23T20:32:07.722Z,32.95
2022-12-23T20:34:39.489Z,40.63
2022-12-23T20:37:08.388Z,35.83
2022-12-23T20:39:35.876Z,34.10
2022-12-23T20:42:03.611Z,35.58
2022-12-23T20:44:35.082Z,34.25
2022-12-23T20:47:05.609Z,32.75
2022-12-23T20:49:33.784Z,30.48
2022-12-23T20:52:01.587Z,35.70
2022-12-23T20:54:33.300Z,34.97
2022-12-23T20:57:02.742Z,38.38
2022-12-23T20:59:30.338Z,41.35
2022-12-23T21:01:59.498Z,44.72
2022-12-23T21:04:28.111Z,39.78
2022-12-23T21:06:55.677Z,39.17
2022-12-23T21:09:23.692Z,43.85
2022-12-23T21:11:51.413Z,48.88
2022-12-23T21:14:19.032Z,38.97
2022-12-23T21:16:46.988Z,44.20
2022-12-23T21:19:17.812Z,58.78
2022-12-23T21:21:46.667Z,48.67
2022-12-23T21:24:15.252Z,44.77
2022-12-23T21:26:42.793Z,53.97
2022-12-23T21:29:11.091Z,45.50
2022-12-23T21:31:40.889Z,42.60
2022-12-23T21:34:08.655Z,43.25
2022-12-23T21:36:38.914Z,49.80
2022-12-23T21:39:10.473Z,44.25
2022-12-23T21:41:41.291Z,47.30
2022-12-23T21:44:13.627Z,55.42
2022-12-23T21:46:41.439Z,59.45
2022-12-23T21:49:09.801Z,50.08
2022-12-23T21:51:40.650Z,50.85
2022-12-23T21:54:12.025Z,57.72
2022-12-23T21:56:40.905Z,54.22
2022-12-23T21:59:12.227Z,54.10
2022-12-23T22:01:40.812Z,55.55
2022-12-23T22:04:11.719Z,59.00
2022-12-23T22:06:43.752Z,65.97
2022-12-23T22:09:17.834Z,59.65
2022-12-23T22:11:47.623Z,63.45
2022-12-23T22:14:17.934Z,57.03
2022-12-23T22:16:45.721Z,55.22
2022-12-23T22:19:13.314Z,57.42
2022-12-23T22:21:42.683Z,58.90
2022-12-23T22:24:11.208Z,52.22
2022-12-23T22:26:39.884Z,51.78
2022-12-23T22:29:07.537Z,56.75
2022-12-23T22:31:41.232Z,54.15
2022-12-23T22:34:13.846Z,54.90
2022-12-23T22:36:41.680Z,48.70
2022-12-23T22:39:17.720Z,55.53
2022-12-23T22:44:21.015Z,56.60
2022-12-23T22:46:48.804Z,49.90
2022-12-23T22:49:16.957Z,48.47
2022-12-23T22:51:45.126Z,50.80
2022-12-23T22:54:14.475Z,49.92
2022-12-23T22:56:45.881Z,50.40
2022-12-23T22:59:20.543Z,47.17
2022-12-23T23:01:49.572Z,53.83
2022-12-23T23:04:17.686Z,47.35
2022-12-23T23:06:45.292Z,43.05
2022-12-23T23:09:15.622Z,48.25
2022-12-23T23:11:44.547Z,44.55
2022-12-23T23:14:12.660Z,46.25
2022-12-23T23:16:40.635Z,47.60
2022-12-23T23:19:09.256Z,50.13
2022-12-23T23:21:37.893Z,48.90
2022-12-23T23:24:05.939Z,44.55
2022-12-23T23:26:34.161Z,50.47
2022-12-23T23:29:01.727Z,52.28
2022-12-23T23:31:45.387Z,52.70
2022-12-23T23:34:13.920Z,53.83
2022-12-23T23:36:42.185Z,45.42
2022-12-23T23:39:12.322Z,49.95
2022-12-23T23:41:41.134Z,49.45
2022-12-23T23:44:09.969Z,54.35
2022-12-23T23:46:38.390Z,50.05
2022-12-23T23:49:06.515Z,48.22
2022-12-23T23:51:34.315Z,44.35
2022-12-23T23:54:02.061Z,49.10
2022-12-23T23:56:37.528Z,50.17
2022-12-23T23:59:05.517Z,50.70
